createdAt,value
2023-05-07T00:02:18.785Z,101469.45
2023-05-07T00:04:46.537Z,101470.17
2023-05-07T00:07:13.566Z,101463.59
2023-05-07T00:09:40.991Z,101464.17
2023-05-07T00:12:08.516Z,101463.55
2023-05-07T00:14:35.417Z,101464.09
2023-05-07T00:17:02.415Z,101466.22
2023-05-07T00:19:29.398Z,101464.17
2023-05-07T00:21:57.033Z,101458.34
2023-05-07T00:24:23.946Z,101456.66
2023-05-07T00:26:51.428Z,101452.73
2023-05-07T00:29:18.484Z,101450.68
2023-05-07T00:31:45.477Z,101449.91
2023-05-07T00:34:12.422Z,101447.92
2023-05-07T00:36:39.469Z,101447.81
2023-05-07T00:39:06.491Z,101451.52
2023-05-07T00:41:33.445Z,101452.91
2023-05-07T00:44:00.334Z,101452.58
2023-05-07T00:46:27.505Z,101453.65
2023-05-07T00:48:54.596Z,101454.01
2023-05-07T00:51:21.586Z,101453.88
2023-05-07T00:53:48.981Z,101458.77
2023-05-07T00:56:16.233Z,101458.41
2023-05-07T00:58:43.275Z,101457.89
2023-05-07T01:01:10.371Z,101463.61
2023-05-07T01:03:37.510Z,101468.51
2023-05-07T01:06:06.023Z,101473.59
2023-05-07T01:08:36.734Z,101472.90
2023-05-07T01:11:04.801Z,101477.96
2023-05-07T01:13:32.164Z,101476.09
2023-05-07T01:15:59.171Z,101481.33
2023-05-07T01:18:26.903Z,101481.89
2023-05-07T01:20:54.022Z,101481.91
2023-05-07T01:23:21.236Z,101485.80
2023-05-07T01:25:55.111Z,101483.93
2023-05-07T01:28:23.609Z,101482.98
2023-05-07T01:30:56.849Z,101479.02
2023-05-07T01:33:24.473Z,101484.64
2023-05-07T01:35:54.225Z,101482.98
2023-05-07T01:38:22.703Z,101487.19
2023-05-07T01:40:49.654Z,101490.02
2023-05-07T01:43:16.670Z,101486.09
2023-05-07T01:45:43.832Z,101486.97
2023-05-07T01:48:11.531Z,101489.95
2023-05-07T01:50:38.589Z,101487.90
2023-05-07T01:53:05.503Z,101491.20
2023-05-07T01:55:32.565Z,101495.05
2023-05-07T01:57:59.630Z,101502.70
2023-05-07T02:00:26.770Z,101507.39
2023-05-07T02:02:54.301Z,101509.13
2023-05-07T02:05:29.744Z,101512.42
2023-05-07T02:08:01.484Z,101516.94
2023-05-07T02:10:29.193Z,101521.29
2023-05-07T02:12:56.325Z,101519.58
2023-05-07T02:15:23.342Z,101525.88
2023-05-07T02:18:04.938Z,101523.33
2023-05-07T02:20:32.424Z,101520.20
2023-05-07T02:22:59.364Z,101527.16
2023-05-07T02:25:26.700Z,101526.48
2023-05-07T02:27:53.776Z,101526.15
2023-05-07T02:30:23.317Z,101521.64
2023-05-07T02:32:51.986Z,101522.55
2023-05-07T02:35:19.126Z,101522.05
2023-05-07T02:37:46.124Z,101521.24
2023-05-07T02:40:14.271Z,101528.55
2023-05-07T02:42:41.350Z,101536.91
2023-05-07T02:45:09.326Z,101539.52
2023-05-07T02:47:36.655Z,101545.95
2023-05-07T02:50:04.726Z,101544.22
2023-05-07T02:52:32.025Z,101541.80
2023-05-07T02:54:59.246Z,101539.36
2023-05-07T02:57:26.174Z,101542.82
2023-05-07T02:59:53.142Z,101545.59
2023-05-07T03:02:21.405Z,101551.64
2023-05-07T03:04:48.378Z,101550.05
2023-05-07T03:07:15.603Z,101551.43
2023-05-07T03:09:42.589Z,101553.13
2023-05-07T03:12:09.629Z,101558.85
2023-05-07T03:14:36.594Z,101564.23
2023-05-07T03:17:03.577Z,101564.09
2023-05-07T03:19:31.745Z,101567.75
2023-05-07T03:21:59.023Z,101568.23
2023-05-07T03:26:53.128Z,101566.83
2023-05-07T03:29:21.048Z,101567.68
2023-05-07T03:31:48.204Z,101571.52
2023-05-07T03:34:15.260Z,101572.08
2023-05-07T03:36:42.290Z,101581.46
2023-05-07T03:39:10.067Z,101581.12
2023-05-07T03:41:39.650Z,101579.91
2023-05-07T03:44:07.112Z,101578.19
2023-05-07T03:46:34.934Z,101581.13
2023-05-07T03:49:02.065Z,101584.64
2023-05-07T03:51:29.660Z,101576.31
2023-05-07T03:53:58.316Z,101580.66
2023-05-07T03:56:27.844Z,101584.46
2023-05-07T03:58:55.689Z,101588.78
2023-05-07T04:01:22.654Z,101584.77
2023-05-07T04:03:49.737Z,101589.05
2023-05-07T04:06:18.534Z,101594.92
2023-05-07T04:08:46.643Z,101594.02
2023-05-07T04:11:14.468Z,101598.86
2023-05-07T04:13:41.509Z,101597.79
2023-05-07T04:16:09.416Z,101594.14
2023-05-07T04:18:37.257Z,101590.09
2023-05-07T04:21:04.941Z,101588.68
2023-05-07T04:23:32.073Z,101589.86
2023-05-07T04:26:01.968Z,101585.70
2023-05-07T04:28:40.721Z,101586.21
2023-05-07T04:31:07.770Z,101584.85
2023-05-07T04:33:38.416Z,101590.41
2023-05-07T04:36:06.949Z,101586.23
2023-05-07T04:38:39.909Z,101584.34
2023-05-07T04:41:07.593Z,101581.52
2023-05-07T04:43:36.955Z,101580.80
2023-05-07T04:46:03.965Z,101578.34
2023-05-07T04:48:31.400Z,101579.34
2023-05-07T04:50:58.686Z,101575.48
2023-05-07T04:53:25.945Z,101574.23
2023-05-07T04:55:59.433Z,101574.05
2023-05-07T04:58:32.920Z,101573.30
2023-05-07T05:01:02.314Z,101573.27
2023-05-07T05:03:31.117Z,101566.50
2023-05-07T05:06:01.036Z,101566.48
2023-05-07T05:08:32.240Z,101564.56
2023-05-07T05:10:59.799Z,101566.82
2023-05-07T05:13:26.875Z,101566.11
2023-05-07T05:15:53.996Z,101563.63
2023-05-07T05:18:21.765Z,101564.46
2023-05-07T05:20:48.932Z,101561.98
2023-05-07T05:23:16.181Z,101559.29
2023-05-07T05:25:43.272Z,101560.91
2023-05-07T05:28:14.768Z,101560.87
2023-05-07T05:30:44.141Z,101563.59
2023-05-07T05:33:11.256Z,101561.27
2023-05-07T05:35:39.014Z,101557.20
2023-05-07T05:38:07.745Z,101551.30
2023-05-07T05:40:34.928Z,101543.64
2023-05-07T05:43:02.095Z,101548.28
2023-05-07T05:45:29.570Z,101550.17
2023-05-07T05:47:57.820Z,101551.16
2023-05-07T05:50:24.945Z,101547.98
2023-05-07T05:52:52.782Z,101549.84
2023-05-07T05:55:20.133Z,101550.61
2023-05-07T05:57:47.376Z,101546.68
2023-05-07T06:00:14.815Z,101542.91
2023-05-07T06:02:48.411Z,101540.52
2023-05-07T06:05:19.936Z,101542.08
2023-05-07T06:07:47.815Z,101543.33
2023-05-07T06:10:15.934Z,101538.27
2023-05-07T06:12:43.071Z,101538.50
2023-05-07T06:15:10.778Z,101544.48
2023-05-07T06:17:39.587Z,101547.14
2023-05-07T06:20:08.187Z,101548.21
2023-05-07T06:22:35.429Z,101543.59
2023-05-07T06:25:02.942Z,101546.02
2023-05-07T06:27:29.934Z,101544.80
2023-05-07T06:29:57.426Z,101547.38
2023-05-07T06:32:24.498Z,101545.09
2023-05-07T06:34:52.046Z,101549.42
2023-05-07T06:37:19.451Z,101551.21
2023-05-07T06:39:54.176Z,101546.55
2023-05-07T06:42:21.230Z,101547.81
2023-05-07T06:44:49.104Z,101552.48
2023-05-07T06:47:17.664Z,101556.49
2023-05-07T06:49:46.937Z,101555.35
2023-05-07T06:52:16.729Z,101557.57
2023-05-07T06:54:43.837Z,101550.89
2023-05-07T06:57:11.461Z,101552.92
2023-05-07T06:59:38.506Z,101554.51
2023-05-07T07:02:05.607Z,101555.02
2023-05-07T07:04:32.630Z,101554.61
2023-05-07T07:07:02.832Z,101556.77
2023-05-07T07:09:30.120Z,101550.94
2023-05-07T07:11:57.974Z,101549.32
2023-05-07T07:14:26.833Z,101551.30
2023-05-07T07:16:54.115Z,101553.45
2023-05-07T07:19:21.533Z,101546.67
2023-05-07T07:21:49.968Z,101546.71
2023-05-07T07:24:20.401Z,101547.45
2023-05-07T07:26:48.869Z,101541.68
2023-05-07T07:29:15.948Z,101539.27
2023-05-07T07:31:43.606Z,101542.27
2023-05-07T07:34:11.385Z,101545.22
2023-05-07T07:36:46.139Z,101543.85
2023-05-07T07:39:15.939Z,101543.48
2023-05-07T07:41:43.437Z,101552.61
2023-05-07T07:44:15.941Z,101545.52
2023-05-07T07:46:46.512Z,101546.03
2023-05-07T07:49:14.166Z,101542.53
2023-05-07T07:51:41.919Z,101544.16
2023-05-07T07:54:10.574Z,101547.15
2023-05-07T07:56:37.886Z,101545.19
2023-05-07T07:59:06.025Z,101548.05
2023-05-07T08:01:33.880Z,101547.36
2023-05-07T08:04:01.515Z,101548.86
2023-05-07T08:06:29.045Z,101554.40
2023-05-07T08:08:56.436Z,101554.93
2023-05-07T08:11:23.564Z,101552.96
2023-05-07T08:13:51.451Z,101552.88
2023-05-07T08:16:19.069Z,101550.80
2023-05-07T08:18:46.350Z,101549.44
2023-05-07T08:21:13.766Z,101554.00
2023-05-07T08:23:42.487Z,101553.30
2023-05-07T08:26:09.782Z,101553.25
2023-05-07T08:28:37.073Z,101546.66
2023-05-07T08:31:05.335Z,101549.38
2023-05-07T08:33:35.519Z,101546.91
2023-05-07T08:36:02.478Z,101543.20
2023-05-07T08:38:33.555Z,101543.63
2023-05-07T08:41:00.813Z,101543.13
2023-05-07T08:43:29.859Z,101544.43
2023-05-07T08:45:56.839Z,101544.02
2023-05-07T08:48:26.519Z,101544.24
2023-05-07T08:51:21.361Z,101543.46
2023-05-07T08:53:49.473Z,101539.83
2023-05-07T08:56:22.510Z,101539.40
2023-05-07T08:58:50.156Z,101541.77
2023-05-07T09:01:17.905Z,101544.77
2023-05-07T09:03:47.059Z,101545.17
2023-05-07T09:06:15.138Z,101544.66
2023-05-07T09:08:43.053Z,101548.11
2023-05-07T09:11:11.696Z,101541.27
2023-05-07T09:13:39.052Z,101548.68
2023-05-07T09:16:13.313Z,101552.72
2023-05-07T09:18:43.265Z,101558.23
2023-05-07T09:21:18.747Z,101557.54
2023-05-07T09:23:46.576Z,101553.35
2023-05-07T09:26:14.352Z,101549.56
2023-05-07T09:28:44.857Z,101555.96
2023-05-07T09:31:13.395Z,101549.52
2023-05-07T09:33:40.783Z,101550.23
2023-05-07T09:36:10.190Z,101551.23
2023-05-07T09:38:38.561Z,101556.81
2023-05-07T09:41:23.745Z,101553.19
2023-05-07T09:43:58.924Z,101559.88
2023-05-07T09:46:31.562Z,101558.77
2023-05-07T09:49:02.709Z,101556.81
2023-05-07T09:51:40.888Z,101554.90
2023-05-07T09:54:07.882Z,101558.06
2023-05-07T09:56:35.539Z,101558.13
2023-05-07T09:59:03.154Z,101551.16
2023-05-07T10:01:32.292Z,101546.51
2023-05-07T10:03:59.996Z,101538.39
2023-05-07T10:06:28.368Z,101536.59
2023-05-07T10:08:55.726Z,101532.27
2023-05-07T10:11:23.186Z,101525.52
2023-05-07T10:13:50.537Z,101527.63
2023-05-07T10:16:17.473Z,101525.15
2023-05-07T10:18:49.477Z,101521.48
2023-05-07T10:21:21.065Z,101525.38
2023-05-07T10:23:59.533Z,101526.69
2023-05-07T10:26:27.366Z,101519.89
2023-05-07T10:28:59.798Z,101514.09
2023-05-07T10:31:31.078Z,101512.75
2023-05-07T10:33:58.289Z,101509.04
2023-05-07T10:36:26.369Z,101507.60
2023-05-07T10:38:53.642Z,101502.95
2023-05-07T10:41:22.230Z,101504.35
2023-05-07T10:43:49.830Z,101494.33
2023-05-07T10:46:23.920Z,101494.67
2023-05-07T10:49:07.433Z,101493.17
2023-05-07T10:51:41.915Z,101494.26
2023-05-07T10:54:21.317Z,101487.21
2023-05-07T10:56:57.054Z,101488.61
2023-05-07T10:59:32.778Z,101488.85
2023-05-07T11:02:07.681Z,101492.77
2023-05-07T11:05:23.753Z,101491.25
2023-05-07T11:08:23.192Z,101475.17
2023-05-07T11:11:08.311Z,101475.45
2023-05-07T11:13:52.511Z,101479.59
2023-05-07T11:16:39.783Z,101480.54
2023-05-07T11:19:18.708Z,101479.67
2023-05-07T11:21:49.556Z,101479.40
2023-05-07T11:24:41.018Z,101471.34
2023-05-07T11:27:08.463Z,101471.38
2023-05-07T11:29:35.513Z,101480.54
2023-05-07T11:32:12.011Z,101485.48
2023-05-07T11:34:58.462Z,101490.56
2023-05-07T11:37:26.413Z,101485.86
2023-05-07T11:40:12.116Z,101484.70
2023-05-07T11:42:43.853Z,101479.39
2023-05-07T11:45:11.426Z,101477.58
2023-05-07T11:47:38.971Z,101481.54
2023-05-07T11:50:08.743Z,101482.39
2023-05-07T11:52:36.136Z,101475.23
2023-05-07T11:55:04.748Z,101474.85
2023-05-07T11:57:31.841Z,101474.50
2023-05-07T11:59:59.676Z,101474.77
2023-05-07T12:02:27.166Z,101472.59
2023-05-07T12:04:54.765Z,101470.71
2023-05-07T12:07:21.858Z,101474.06
2023-05-07T12:09:49.052Z,101469.63
2023-05-07T12:12:18.439Z,101467.04
2023-05-07T12:14:46.204Z,101464.41
2023-05-07T12:17:14.468Z,101467.77
2023-05-07T12:19:42.902Z,101463.00
2023-05-07T12:22:12.927Z,101460.08
2023-05-07T12:24:50.984Z,101460.67
2023-05-07T12:27:18.345Z,101459.30
2023-05-07T12:29:48.635Z,101457.66
2023-05-07T12:32:17.468Z,101454.31
2023-05-07T12:34:45.760Z,101454.19
2023-05-07T12:37:16.753Z,101451.13
2023-05-07T12:39:50.542Z,101453.70
2023-05-07T12:42:18.308Z,101452.22
2023-05-07T12:44:46.850Z,101451.40
2023-05-07T12:47:14.005Z,101449.23
2023-05-07T12:49:41.271Z,101445.02
2023-05-07T12:52:08.292Z,101441.69
2023-05-07T12:54:36.500Z,101441.19
2023-05-07T12:57:04.847Z,101441.10
2023-05-07T12:59:39.805Z,101435.98
2023-05-07T13:02:06.976Z,101442.09
2023-05-07T13:04:35.163Z,101439.48
2023-05-07T13:07:02.271Z,101439.44
2023-05-07T13:09:32.644Z,101438.95
2023-05-07T13:12:02.697Z,101438.95
2023-05-07T13:14:29.928Z,101440.65
2023-05-07T13:16:56.876Z,101439.30
2023-05-07T13:19:23.857Z,101445.19
2023-05-07T13:21:51.023Z,101446.71
2023-05-07T13:24:18.158Z,101442.80
2023-05-07T13:26:46.088Z,101441.39
2023-05-07T13:29:13.375Z,101442.59
2023-05-07T13:31:44.332Z,101439.15
2023-05-07T13:34:11.733Z,101435.15
2023-05-07T13:36:41.702Z,101437.99
2023-05-07T13:39:10.233Z,101436.64
2023-05-07T13:41:37.181Z,101436.38
2023-05-07T13:44:04.301Z,101440.61
2023-05-07T13:46:31.430Z,101436.06
2023-05-07T13:48:58.466Z,101434.81
2023-05-07T13:51:25.749Z,101435.86
2023-05-07T13:53:53.714Z,101436.23
2023-05-07T13:56:21.360Z,101435.29
2023-05-07T13:58:59.545Z,101439.17
2023-05-07T14:01:27.923Z,101436.58
2023-05-07T14:03:55.146Z,101432.63
2023-05-07T14:06:22.957Z,101426.66
2023-05-07T14:08:50.142Z,101423.74
2023-05-07T14:11:17.230Z,101416.92
2023-05-07T14:13:44.265Z,101418.16
2023-05-07T14:16:11.204Z,101419.08
2023-05-07T14:18:39.794Z,101414.59
2023-05-07T14:21:10.997Z,101412.15
2023-05-07T14:23:37.984Z,101409.55
2023-05-07T14:26:05.092Z,101409.06
2023-05-07T14:28:32.522Z,101410.43
2023-05-07T14:30:59.609Z,101407.12
2023-05-07T14:33:26.673Z,101410.41
2023-05-07T14:35:53.788Z,101412.54
2023-05-07T14:38:21.165Z,101415.38
2023-05-07T14:40:48.436Z,101418.90
2023-05-07T14:43:15.451Z,101419.09
2023-05-07T14:45:42.906Z,101416.48
2023-05-07T14:48:13.547Z,101416.83
2023-05-07T14:50:40.723Z,101418.05
2023-05-07T14:53:08.124Z,101419.09
2023-05-07T14:55:35.970Z,101414.38
2023-05-07T14:58:02.965Z,101413.13
2023-05-07T15:00:29.954Z,101414.01
2023-05-07T15:03:09.028Z,101411.70
2023-05-07T15:05:36.554Z,101413.08
2023-05-07T15:08:03.694Z,101418.89
2023-05-07T15:10:30.946Z,101425.95
2023-05-07T15:12:58.852Z,101427.21
2023-05-07T15:15:25.944Z,101429.46
2023-05-07T15:17:53.371Z,101432.61
2023-05-07T15:20:20.560Z,101436.11
2023-05-07T15:22:47.670Z,101437.67
2023-05-07T15:25:15.051Z,101440.98
2023-05-07T15:27:42.420Z,101444.29
2023-05-07T15:30:11.410Z,101442.21
2023-05-07T15:32:39.440Z,101437.52
2023-05-07T15:35:06.895Z,101441.20
2023-05-07T15:37:34.766Z,101440.72
2023-05-07T15:40:03.614Z,101440.41
2023-05-07T15:42:30.992Z,101440.39
2023-05-07T15:44:58.459Z,101439.70
2023-05-07T15:47:25.478Z,101434.29
2023-05-07T15:49:53.025Z,101435.18
2023-05-07T15:52:20.088Z,101433.34
2023-05-07T15:54:47.337Z,101432.71
2023-05-07T15:57:14.405Z,101434.00
2023-05-07T15:59:42.114Z,101432.64
2023-05-07T16:02:09.281Z,101433.70
2023-05-07T16:04:36.875Z,101439.66
2023-05-07T16:07:04.116Z,101435.27
2023-05-07T16:09:31.242Z,101435.81
2023-05-07T16:11:58.214Z,101439.14
2023-05-07T16:14:25.317Z,101441.28
2023-05-07T16:16:54.532Z,101443.29
2023-05-07T16:19:23.424Z,101442.77
2023-05-07T16:21:50.531Z,101441.55
2023-05-07T16:24:17.788Z,101441.91
2023-05-07T16:26:45.104Z,101441.94
2023-05-07T16:29:12.141Z,101441.80
2023-05-07T16:31:39.513Z,101441.81
2023-05-07T16:34:06.576Z,101439.04
2023-05-07T16:36:33.796Z,101442.04
2023-05-07T16:39:00.881Z,101443.46
2023-05-07T16:41:27.933Z,101441.07
2023-05-07T16:43:54.905Z,101438.67
2023-05-07T16:46:21.949Z,101442.41
2023-05-07T16:48:48.976Z,101445.08
2023-05-07T16:51:15.921Z,101446.20
2023-05-07T16:53:42.921Z,101452.20
2023-05-07T16:56:09.918Z,101449.61
2023-05-07T16:58:36.837Z,101443.91
2023-05-07T17:01:04.198Z,101445.01
2023-05-07T17:03:32.377Z,101445.95
2023-05-07T17:05:59.639Z,101448.08
2023-05-07T17:08:26.736Z,101444.30
2023-05-07T17:10:53.682Z,101446.31
2023-05-07T17:13:20.797Z,101448.33
2023-05-07T17:15:47.958Z,101451.20
2023-05-07T17:18:15.163Z,101453.02
2023-05-07T17:20:42.154Z,101454.33
2023-05-07T17:23:09.150Z,101452.86
2023-05-07T17:25:37.236Z,101447.70
2023-05-07T17:28:04.877Z,101451.29
2023-05-07T17:30:32.826Z,101450.39
2023-05-07T17:33:09.324Z,101454.02
2023-05-07T17:35:44.307Z,101460.11
2023-05-07T17:38:11.205Z,101461.15
2023-05-07T17:40:38.343Z,101467.55
2023-05-07T17:43:05.335Z,101468.52
2023-05-07T17:45:33.165Z,101473.68
2023-05-07T17:48:00.206Z,101476.02
2023-05-07T17:50:27.330Z,101475.10
2023-05-07T17:52:54.322Z,101475.55
2023-05-07T17:55:21.461Z,101477.23
2023-05-07T17:57:48.434Z,101475.28
2023-05-07T18:00:16.281Z,101478.39
2023-05-07T18:02:43.326Z,101478.12
2023-05-07T18:05:10.669Z,101478.56
2023-05-07T18:07:37.641Z,101481.42
2023-05-07T18:10:04.906Z,101486.06
2023-05-07T18:12:32.046Z,101487.53
2023-05-07T18:14:59.017Z,101491.45
2023-05-07T18:17:27.054Z,101494.30
2023-05-07T18:19:55.125Z,101496.85
2023-05-07T18:22:22.714Z,101497.05
2023-05-07T18:24:50.007Z,101499.61
2023-05-07T18:27:17.216Z,101496.34
2023-05-07T18:29:44.249Z,101498.86
2023-05-07T18:32:12.148Z,101498.89
2023-05-07T18:34:39.509Z,101500.86
2023-05-07T18:37:06.569Z,101500.88
2023-05-07T18:39:35.894Z,101503.89
2023-05-07T18:42:05.311Z,101506.04
2023-05-07T18:44:33.406Z,101506.59
2023-05-07T18:47:00.727Z,101509.94
2023-05-07T18:49:27.812Z,101510.80
2023-05-07T18:51:54.880Z,101508.92
2023-05-07T18:54:21.840Z,101507.54
2023-05-07T18:56:49.241Z,101511.42
2023-05-07T18:59:16.356Z,101511.97
2023-05-07T19:01:43.769Z,101508.33
2023-05-07T19:04:10.930Z,101508.36
2023-05-07T19:06:38.052Z,101508.93
2023-05-07T19:09:05.539Z,101512.14
2023-05-07T19:11:32.637Z,101512.17
2023-05-07T19:14:01.678Z,101513.10
2023-05-07T19:16:30.806Z,101511.58
2023-05-07T19:18:58.067Z,101511.47
2023-05-07T19:21:25.246Z,101506.64
2023-05-07T19:23:53.840Z,101505.82
2023-05-07T19:26:21.432Z,101502.70
2023-05-07T19:29:01.405Z,101501.36
2023-05-07T19:31:36.391Z,101500.88
2023-05-07T19:34:03.443Z,101500.91
2023-05-07T19:36:33.473Z,101502.52
2023-05-07T19:39:00.489Z,101503.42
2023-05-07T19:41:28.868Z,101502.79
2023-05-07T19:43:55.939Z,101504.23
2023-05-07T19:46:23.007Z,101503.02
2023-05-07T19:48:51.321Z,101506.34
2023-05-07T19:51:18.374Z,101506.33
2023-05-07T19:53:46.018Z,101503.89
2023-05-07T19:56:13.110Z,101503.41
2023-05-07T19:58:40.060Z,101500.48
2023-05-07T20:01:07.392Z,101504.16
2023-05-07T20:03:34.718Z,101504.53
2023-05-07T20:06:02.806Z,101505.27
2023-05-07T20:08:29.905Z,101508.77
2023-05-07T20:10:58.116Z,101506.05
2023-05-07T20:13:26.733Z,101507.32
2023-05-07T20:16:00.487Z,101510.30
2023-05-07T20:18:28.212Z,101514.75
2023-05-07T20:20:55.287Z,101518.27
2023-05-07T20:23:22.265Z,101520.09
2023-05-07T20:25:50.483Z,101520.64
2023-05-07T20:28:17.404Z,101521.57
2023-05-07T20:30:44.385Z,101522.80
2023-05-07T20:33:11.456Z,101522.64
2023-05-07T20:35:38.525Z,101523.20
2023-05-07T20:38:05.742Z,101525.52
2023-05-07T20:40:34.644Z,101530.09
2023-05-07T20:43:03.571Z,101531.01
2023-05-07T20:45:30.576Z,101532.27
2023-05-07T20:47:57.642Z,101537.23
2023-05-07T20:50:25.276Z,101542.48
2023-05-07T20:52:52.497Z,101541.63
2023-05-07T20:55:19.483Z,101541.34
2023-05-07T20:57:46.565Z,101535.95
2023-05-07T21:00:14.208Z,101535.27
2023-05-07T21:02:41.628Z,101534.27
2023-05-07T21:05:08.795Z,101536.39
2023-05-07T21:07:35.739Z,101538.50
2023-05-07T21:10:02.815Z,101535.37
2023-05-07T21:12:29.784Z,101537.45
2023-05-07T21:14:56.883Z,101538.33
2023-05-07T21:17:23.875Z,101544.77
2023-05-07T21:19:51.311Z,101554.36
2023-05-07T21:22:18.244Z,101552.10
2023-05-07T21:24:45.292Z,101555.95
2023-05-07T21:27:12.268Z,101561.89
2023-05-07T21:29:39.726Z,101560.54
2023-05-07T21:32:06.851Z,101560.03
2023-05-07T21:34:33.804Z,101559.70
2023-05-07T21:37:00.728Z,101553.79
2023-05-07T21:39:27.696Z,101555.73
2023-05-07T21:41:54.655Z,101560.27
2023-05-07T21:44:21.973Z,101557.54
2023-05-07T21:46:49.052Z,101558.45
2023-05-07T21:49:16.032Z,101561.80
2023-05-07T21:51:43.037Z,101558.17
2023-05-07T21:54:10.872Z,101560.32
2023-05-07T21:56:37.845Z,101561.22
2023-05-07T21:59:04.814Z,101563.03
2023-05-07T22:01:31.752Z,101561.48
2023-05-07T22:03:58.849Z,101562.77
2023-05-07T22:06:25.902Z,101561.05
2023-05-07T22:08:53.024Z,101564.58
2023-05-07T22:11:20.007Z,101568.11
2023-05-07T22:13:46.981Z,101568.66
2023-05-07T22:16:13.977Z,101564.53
2023-05-07T22:18:41.065Z,101563.15
2023-05-07T22:21:08.002Z,101560.90
2023-05-07T22:23:34.969Z,101563.52
2023-05-07T22:26:01.991Z,101560.74
2023-05-07T22:28:28.992Z,101561.64
2023-05-07T22:30:55.936Z,101566.77
2023-05-07T22:33:22.998Z,101564.56
2023-05-07T22:35:49.953Z,101565.11
2023-05-07T22:38:16.914Z,101565.64
2023-05-07T22:40:43.883Z,101566.05
2023-05-07T22:43:10.798Z,101567.48
2023-05-07T22:45:37.832Z,101565.79
2023-05-07T22:48:05.207Z,101566.87
2023-05-07T22:50:36.817Z,101565.68
2023-05-07T22:53:04.356Z,101560.83
2023-05-07T22:55:31.595Z,101564.16
2023-05-07T22:57:58.529Z,101564.06
2023-05-07T23:00:25.584Z,101557.89
2023-05-07T23:02:52.716Z,101563.67
2023-05-07T23:05:20.679Z,101561.98
2023-05-07T23:07:47.601Z,101562.67
2023-05-07T23:10:14.661Z,101562.02
2023-05-07T23:12:42.077Z,101558.02
2023-05-07T23:15:09.380Z,101554.19
2023-05-07T23:17:36.341Z,101554.21
2023-05-07T23:20:03.448Z,101548.83
2023-05-07T23:22:30.594Z,101550.92
2023-05-07T23:24:57.511Z,101548.83
2023-05-07T23:27:24.482Z,101547.81
2023-05-07T23:29:51.671Z,101547.69
2023-05-07T23:32:18.595Z,101549.13
2023-05-07T23:34:50.267Z,101550.59
2023-05-07T23:37:17.235Z,101556.03
2023-05-07T23:39:44.195Z,101554.16
2023-05-07T23:42:11.121Z,101557.98
2023-05-07T23:44:38.072Z,101559.73
2023-05-07T23:47:05.008Z,101561.87
2023-05-07T23:49:32.016Z,101561.40
2023-05-07T23:51:59.311Z,101562.31
2023-05-07T23:54:26.289Z,101559.21
2023-05-07T23:56:53.276Z,101563.95
2023-05-07T23:59:20.301Z,101560.35
